createdAt,value
2022-12-09T00:02:07.718Z,1.83
2022-12-09T00:04:36.142Z,1.51
2022-12-09T00:09:37.194Z,1.51
2022-12-09T00:12:08.910Z,1.46
2022-12-09T00:14:37.114Z,1.42
2022-12-09T00:17:05.536Z,1.43
2022-12-09T00:19:34.837Z,1.42
2022-12-09T00:22:04.918Z,1.45
2022-12-09T00:27:02.665Z,1.50
2022-12-09T00:29:33.343Z,1.54
2022-12-09T00:32:01.417Z,1.53
2022-12-09T00:34:29.890Z,1.58
2022-12-09T00:36:57.902Z,1.46
2022-12-09T00:39:26.426Z,1.50
2022-12-09T00:41:54.531Z,1.21
2022-12-09T00:44:22.470Z,1.14
2022-12-09T00:46:51.729Z,1.24
2022-12-09T00:49:19.813Z,1.29
2022-12-09T00:51:47.422Z,1.24
2022-12-09T00:54:15.226Z,1.28
2022-12-09T00:56:43.600Z,1.33
2022-12-09T00:59:13.980Z,1.37
2022-12-09T01:01:42.767Z,1.49
2022-12-09T01:04:12.107Z,1.28
2022-12-09T01:06:39.776Z,1.15
2022-12-09T01:09:08.045Z,1.39
2022-12-09T01:11:36.634Z,1.41
2022-12-09T01:14:04.705Z,1.13
2022-12-09T01:16:34.392Z,1.20
2022-12-09T01:19:04.235Z,1.19
2022-12-09T01:21:34.274Z,1.15
2022-12-09T01:24:02.197Z,1.41
2022-12-09T01:26:30.006Z,1.42
2022-12-09T01:28:57.856Z,1.21
2022-12-09T01:31:26.601Z,1.35
2022-12-09T01:33:56.177Z,1.24
2022-12-09T01:36:24.108Z,1.36
2022-12-09T01:41:45.988Z,1.43
2022-12-09T01:44:19.104Z,1.47
2022-12-09T01:46:47.184Z,1.45
2022-12-09T01:49:18.980Z,1.50
2022-12-09T01:51:49.759Z,1.51
2022-12-09T01:54:18.386Z,1.39
2022-12-09T01:56:47.672Z,1.32
2022-12-09T01:59:16.650Z,1.33
2022-12-09T02:01:47.785Z,1.23
2022-12-09T02:06:43.525Z,1.47
2022-12-09T02:12:02.441Z,1.46
2022-12-09T02:14:32.637Z,1.37
2022-12-09T02:19:30.715Z,1.31
2022-12-09T02:27:09.412Z,1.05
2022-12-09T02:32:35.056Z,1.18
2022-12-09T02:35:08.988Z,0.96
2022-12-09T02:37:41.047Z,1.08
2022-12-09T02:40:13.076Z,1.05
2022-12-09T02:42:41.251Z,1.10
2022-12-09T02:45:11.242Z,0.88
2022-12-09T02:47:41.936Z,1.03
2022-12-09T02:50:17.928Z,1.03
2022-12-09T02:52:47.276Z,1.10
2022-12-09T02:55:17.779Z,0.97
2022-12-09T02:57:46.104Z,0.93
2022-12-09T03:00:16.981Z,0.72
2022-12-09T03:02:47.829Z,0.84
2022-12-09T03:05:23.200Z,0.91
2022-12-09T03:07:57.696Z,1.07
2022-12-09T03:10:29.263Z,0.88
2022-12-09T03:13:01.339Z,1.04
2022-12-09T03:15:32.286Z,0.88
2022-12-09T03:18:02.554Z,0.81
2022-12-09T03:20:32.328Z,0.85
2022-12-09T03:23:02.123Z,0.84
2022-12-09T03:25:33.058Z,0.92
2022-12-09T03:28:04.869Z,0.90
2022-12-09T03:30:34.976Z,0.89
2022-12-09T03:33:03.877Z,0.94
2022-12-09T03:35:35.023Z,0.89
2022-12-09T03:38:04.912Z,0.98
2022-12-09T03:40:33.776Z,0.95
2022-12-09T03:43:03.960Z,0.86
2022-12-09T03:45:32.415Z,0.98
2022-12-09T03:48:00.640Z,0.93
2022-12-09T03:50:30.654Z,0.98
2022-12-09T03:53:02.697Z,1.05
2022-12-09T03:55:34.996Z,1.00
2022-12-09T03:58:04.412Z,0.88
2022-12-09T04:00:33.195Z,0.88
2022-12-09T04:03:01.756Z,0.92
2022-12-09T04:05:31.370Z,0.87
2022-12-09T04:10:28.314Z,0.74
2022-12-09T04:12:56.424Z,0.95
2022-12-09T04:15:24.287Z,0.95
2022-12-09T04:17:52.205Z,0.97
2022-12-09T04:20:20.087Z,0.98
2022-12-09T04:22:47.998Z,0.96
2022-12-09T04:25:15.787Z,0.91
2022-12-09T04:27:44.958Z,0.93
2022-12-09T04:30:13.519Z,0.93
2022-12-09T04:32:41.572Z,1.07
2022-12-09T04:35:09.979Z,1.07
2022-12-09T04:37:37.985Z,1.01
2022-12-09T04:40:07.062Z,1.12
2022-12-09T04:42:35.351Z,1.10
2022-12-09T04:45:04.784Z,1.11
2022-12-09T04:47:34.421Z,1.12
2022-12-09T04:50:02.339Z,1.12
2022-12-09T04:52:30.200Z,1.08
2022-12-09T04:54:58.008Z,1.06
2022-12-09T04:57:25.722Z,1.11
2022-12-09T04:59:53.652Z,1.05
2022-12-09T05:02:23.181Z,1.14
2022-12-09T05:04:51.513Z,1.12
2022-12-09T05:07:19.539Z,1.07
2022-12-09T05:09:48.028Z,1.07
2022-12-09T05:12:15.892Z,1.09
2022-12-09T05:14:43.748Z,1.08
2022-12-09T05:17:11.639Z,1.14
2022-12-09T05:19:41.049Z,1.03
2022-12-09T05:22:09.080Z,1.01
2022-12-09T05:24:37.102Z,1.00
2022-12-09T05:27:04.905Z,1.04
2022-12-09T05:29:32.643Z,1.00
2022-12-09T05:32:00.844Z,1.01
2022-12-09T05:34:29.139Z,1.02
2022-12-09T05:36:58.435Z,0.96
2022-12-09T05:39:26.203Z,0.97
2022-12-09T05:41:53.920Z,1.06
2022-12-09T05:44:22.038Z,0.98
2022-12-09T05:46:49.901Z,0.83
2022-12-09T05:49:17.744Z,1.06
2022-12-09T05:51:46.029Z,1.08
2022-12-09T05:54:15.109Z,0.94
2022-12-09T05:56:47.908Z,1.09
2022-12-09T05:59:16.457Z,0.94
2022-12-09T06:01:44.605Z,0.95
2022-12-09T06:04:12.769Z,0.79
2022-12-09T06:06:40.649Z,0.93
2022-12-09T06:09:11.565Z,0.80
2022-12-09T06:11:41.864Z,0.59
2022-12-09T06:14:10.325Z,0.69
2022-12-09T06:16:38.918Z,0.67
2022-12-09T06:19:06.964Z,0.65
2022-12-09T06:21:34.761Z,0.73
2022-12-09T06:24:02.571Z,0.67
2022-12-09T06:26:31.312Z,0.69
2022-12-09T06:29:00.590Z,0.63
2022-12-09T06:31:29.964Z,0.82
2022-12-09T06:33:59.640Z,0.73
2022-12-09T06:36:29.175Z,0.80
2022-12-09T06:38:58.814Z,0.48
2022-12-09T06:41:28.860Z,0.76
2022-12-09T06:43:58.345Z,0.45
2022-12-09T06:46:29.480Z,0.81
2022-12-09T06:48:57.965Z,0.85
2022-12-09T06:51:26.944Z,0.71
2022-12-09T06:53:55.320Z,0.75
2022-12-09T06:56:24.118Z,0.60
2022-12-09T06:58:52.051Z,0.66
2022-12-09T07:01:21.814Z,0.73
2022-12-09T07:03:53.575Z,0.59
2022-12-09T07:06:26.800Z,0.60
2022-12-09T07:08:55.586Z,0.71
2022-12-09T07:11:23.620Z,0.73
2022-12-09T07:13:51.694Z,0.74
2022-12-09T07:16:20.092Z,0.71
2022-12-09T07:18:48.010Z,0.63
2022-12-09T07:21:19.487Z,0.62
2022-12-09T07:23:47.893Z,0.71
2022-12-09T07:26:16.953Z,0.60
2022-12-09T07:28:47.294Z,0.64
2022-12-09T07:31:20.258Z,0.74
2022-12-09T07:33:48.423Z,0.56
2022-12-09T07:36:21.203Z,0.76
2022-12-09T07:38:49.669Z,0.71
2022-12-09T07:41:19.408Z,0.76
2022-12-09T07:43:48.159Z,0.65
2022-12-09T07:46:30.791Z,0.69
2022-12-09T07:48:59.497Z,0.72
2022-12-09T07:51:29.586Z,0.66
2022-12-09T07:53:57.964Z,0.41
2022-12-09T07:56:27.643Z,0.75
2022-12-09T07:58:57.296Z,0.60
2022-12-09T08:01:27.840Z,0.58
2022-12-09T08:03:55.886Z,0.62
2022-12-09T08:06:26.288Z,0.63
2022-12-09T08:08:59.653Z,0.68
2022-12-09T08:11:29.364Z,0.67
2022-12-09T08:13:58.340Z,0.67
2022-12-09T08:16:26.784Z,0.55
2022-12-09T08:18:55.530Z,0.52
2022-12-09T08:21:25.072Z,0.57
2022-12-09T08:23:54.296Z,0.56
2022-12-09T08:26:25.000Z,0.67
2022-12-09T08:28:53.360Z,0.61
2022-12-09T08:31:23.433Z,0.54
2022-12-09T08:33:52.440Z,0.62
2022-12-09T08:36:22.321Z,0.61
2022-12-09T08:38:50.415Z,0.55
2022-12-09T08:41:35.980Z,0.52
2022-12-09T08:44:06.354Z,0.51
2022-12-09T08:46:35.430Z,0.46
2022-12-09T08:49:03.741Z,0.54
2022-12-09T08:51:31.962Z,0.61
2022-12-09T08:54:00.646Z,0.75
2022-12-09T08:56:30.823Z,0.88
2022-12-09T08:58:58.800Z,0.79
2022-12-09T09:01:32.645Z,0.68
2022-12-09T09:04:01.802Z,0.80
2022-12-09T09:06:30.471Z,0.68
2022-12-09T09:08:59.386Z,0.71
2022-12-09T09:11:28.972Z,0.63
2022-12-09T09:13:57.720Z,0.62
2022-12-09T09:16:28.204Z,0.63
2022-12-09T09:18:56.471Z,0.63
2022-12-09T09:21:26.849Z,0.75
2022-12-09T09:23:54.819Z,0.80
2022-12-09T09:26:25.450Z,0.79
2022-12-09T09:28:55.114Z,0.79
2022-12-09T09:31:24.409Z,0.82
2022-12-09T09:33:53.123Z,0.71
2022-12-09T09:36:23.828Z,0.87
2022-12-09T09:38:55.041Z,0.93
2022-12-09T09:41:28.652Z,1.00
2022-12-09T09:43:58.266Z,1.11
2022-12-09T09:46:34.470Z,1.16
2022-12-09T09:49:03.912Z,1.23
2022-12-09T09:51:33.699Z,1.21
2022-12-09T09:54:08.957Z,1.34
2022-12-09T09:56:43.209Z,1.15
2022-12-09T09:59:21.623Z,1.19
2022-12-09T10:01:58.174Z,1.13
2022-12-09T10:04:31.578Z,1.03
2022-12-09T10:07:07.099Z,1.10
2022-12-09T10:09:50.854Z,0.94
2022-12-09T10:12:26.258Z,1.00
2022-12-09T10:14:59.101Z,1.12
2022-12-09T10:17:29.625Z,1.09
2022-12-09T10:20:00.198Z,1.03
2022-12-09T10:22:30.764Z,0.95
2022-12-09T10:25:00.171Z,0.92
2022-12-09T10:27:31.419Z,0.80
2022-12-09T10:30:02.592Z,0.71
2022-12-09T10:32:32.421Z,0.79
2022-12-09T10:35:01.454Z,0.77
2022-12-09T10:37:32.210Z,0.97
2022-12-09T10:40:07.891Z,0.96
2022-12-09T10:43:00.712Z,1.13
2022-12-09T10:45:52.647Z,1.01
2022-12-09T10:48:23.481Z,1.04
2022-12-09T10:50:56.797Z,1.08
2022-12-09T10:53:25.924Z,1.21
2022-12-09T10:55:56.125Z,1.11
2022-12-09T10:58:26.267Z,1.10
2022-12-09T11:01:11.304Z,1.17
2022-12-09T11:03:41.669Z,1.07
2022-12-09T11:06:23.244Z,1.04
2022-12-09T11:08:53.513Z,0.95
2022-12-09T11:11:21.706Z,1.07
2022-12-09T11:13:49.428Z,1.14
2022-12-09T11:16:27.919Z,1.04
2022-12-09T11:18:56.195Z,1.15
2022-12-09T11:21:35.085Z,1.14
2022-12-09T11:24:04.699Z,1.13
2022-12-09T11:26:36.566Z,1.27
2022-12-09T11:29:08.181Z,1.33
2022-12-09T11:31:40.253Z,1.42
2022-12-09T11:34:17.228Z,1.34
2022-12-09T11:36:49.242Z,1.65
2022-12-09T11:39:26.672Z,1.74
2022-12-09T11:42:16.955Z,1.72
2022-12-09T11:44:56.578Z,1.97
2022-12-09T11:47:36.500Z,2.03
2022-12-09T11:50:19.098Z,2.05
2022-12-09T11:52:47.288Z,2.06
2022-12-09T11:55:18.247Z,1.90
2022-12-09T11:57:49.640Z,1.94
2022-12-09T12:00:20.135Z,1.75
2022-12-09T12:02:54.332Z,1.97
2022-12-09T12:05:24.343Z,2.17
2022-12-09T12:08:01.611Z,2.30
2022-12-09T12:10:32.760Z,2.53
2022-12-09T12:13:05.383Z,2.74
2022-12-09T12:15:48.467Z,2.87
2022-12-09T12:18:20.004Z,2.46
2022-12-09T12:21:04.602Z,2.35
2022-12-09T12:23:45.286Z,2.20
2022-12-09T12:26:16.922Z,2.30
2022-12-09T12:29:00.163Z,2.30
2022-12-09T12:31:45.915Z,2.51
2022-12-09T12:34:26.730Z,2.63
2022-12-09T12:37:00.370Z,2.45
2022-12-09T12:39:37.591Z,2.42
2022-12-09T12:42:25.514Z,2.74
2022-12-09T12:45:19.105Z,2.76
2022-12-09T12:47:52.924Z,2.66
2022-12-09T12:50:33.160Z,2.75
2022-12-09T12:53:06.723Z,2.77
2022-12-09T12:55:46.605Z,2.90
2022-12-09T12:58:20.383Z,2.96
2022-12-09T13:01:01.175Z,3.06
2022-12-09T13:03:36.921Z,2.98
2022-12-09T13:06:06.163Z,3.17
2022-12-09T13:08:36.720Z,3.12
2022-12-09T13:11:09.130Z,3.05
2022-12-09T13:13:39.722Z,2.77
2022-12-09T13:16:11.293Z,2.65
2022-12-09T13:18:39.889Z,2.82
2022-12-09T13:21:09.799Z,2.84
2022-12-09T13:23:50.530Z,3.02
2022-12-09T13:26:26.609Z,2.94
2022-12-09T13:28:59.182Z,2.87
2022-12-09T13:31:30.127Z,2.78
2022-12-09T13:34:05.261Z,2.73
2022-12-09T13:36:39.163Z,2.71
2022-12-09T13:39:10.913Z,2.65
2022-12-09T13:42:01.246Z,2.65
2022-12-09T13:44:35.391Z,2.64
2022-12-09T13:47:27.416Z,2.74
2022-12-09T13:49:58.922Z,2.44
2022-12-09T13:52:49.459Z,2.62
2022-12-09T13:55:49.438Z,2.40
2022-12-09T13:58:38.020Z,2.23
2022-12-09T14:01:13.775Z,2.37
2022-12-09T14:03:49.469Z,2.40
2022-12-09T14:06:22.183Z,2.38
2022-12-09T14:08:54.702Z,2.40
2022-12-09T14:11:42.671Z,2.37
2022-12-09T14:14:58.908Z,2.39
2022-12-09T14:18:01.226Z,2.37
2022-12-09T14:20:31.803Z,2.28
2022-12-09T14:23:19.482Z,2.15
2022-12-09T14:26:05.090Z,2.16
2022-12-09T14:29:01.041Z,2.14
2022-12-09T14:32:05.660Z,2.08
2022-12-09T14:34:36.760Z,1.91
2022-12-09T14:37:16.116Z,1.85
2022-12-09T14:39:47.430Z,1.72
2022-12-09T14:42:26.823Z,1.67
2022-12-09T14:44:58.776Z,1.63
2022-12-09T14:47:29.867Z,1.58
2022-12-09T14:50:07.344Z,1.54
2022-12-09T14:52:35.471Z,1.54
2022-12-09T14:55:06.160Z,1.43
2022-12-09T14:57:38.333Z,1.54
2022-12-09T15:00:07.936Z,1.37
2022-12-09T15:02:35.890Z,1.34
2022-12-09T15:05:03.946Z,1.30
2022-12-09T15:07:32.507Z,1.23
2022-12-09T15:10:02.265Z,1.16
2022-12-09T15:12:32.355Z,1.14
2022-12-09T15:15:09.713Z,1.09
2022-12-09T15:17:43.186Z,1.14
2022-12-09T15:20:22.514Z,1.03
2022-12-09T15:22:52.829Z,1.11
2022-12-09T15:25:21.885Z,0.95
2022-12-09T15:27:56.887Z,0.87
2022-12-09T15:30:29.517Z,0.97
2022-12-09T15:32:57.130Z,0.97
2022-12-09T15:35:26.623Z,0.81
2022-12-09T15:37:56.437Z,0.92
2022-12-09T15:40:29.026Z,0.88
2022-12-09T15:42:59.927Z,0.74
2022-12-09T15:45:30.874Z,0.81
2022-12-09T15:48:02.140Z,0.76
2022-12-09T15:50:32.416Z,0.67
2022-12-09T15:53:06.183Z,0.67
2022-12-09T15:55:37.685Z,0.46
2022-12-09T15:58:06.989Z,0.62
2022-12-09T16:00:40.323Z,0.61
2022-12-09T16:03:08.630Z,0.63
2022-12-09T16:05:41.860Z,0.79
2022-12-09T16:08:10.496Z,0.64
2022-12-09T16:10:47.068Z,0.64
2022-12-09T16:13:15.981Z,0.59
2022-12-09T16:15:48.253Z,0.67
2022-12-09T16:18:25.462Z,0.56
2022-12-09T16:21:02.717Z,0.32
2022-12-09T16:23:30.447Z,0.48
2022-12-09T16:26:07.058Z,0.55
2022-12-09T16:28:35.538Z,0.54
2022-12-09T16:31:05.874Z,0.53
2022-12-09T16:33:35.958Z,0.48
2022-12-09T16:36:05.794Z,0.44
2022-12-09T16:38:34.812Z,0.55
2022-12-09T16:41:08.558Z,0.44
2022-12-09T16:43:37.037Z,0.43
2022-12-09T16:46:33.590Z,0.49
2022-12-09T16:49:05.022Z,0.50
2022-12-09T16:51:32.980Z,0.48
2022-12-09T16:54:00.954Z,0.51
2022-12-09T16:56:30.150Z,0.54
2022-12-09T16:58:59.170Z,0.53
2022-12-09T17:01:31.775Z,0.50
2022-12-09T17:04:04.180Z,0.43
2022-12-09T17:06:34.155Z,0.52
2022-12-09T17:09:01.768Z,0.45
2022-12-09T17:11:29.346Z,0.40
2022-12-09T17:13:56.979Z,0.43
2022-12-09T17:16:26.614Z,0.42
2022-12-09T17:18:54.509Z,0.46
2022-12-09T17:21:23.611Z,0.32
2022-12-09T17:23:51.311Z,0.33
2022-12-09T17:26:20.356Z,0.39
2022-12-09T17:28:48.655Z,0.37
2022-12-09T17:31:19.780Z,0.37
2022-12-09T17:33:47.430Z,0.40
2022-12-09T17:36:15.867Z,0.26
2022-12-09T17:38:44.996Z,0.33
2022-12-09T17:41:15.993Z,0.29
2022-12-09T17:43:43.785Z,0.26
2022-12-09T17:46:13.000Z,0.22
2022-12-09T17:48:41.684Z,0.26
2022-12-09T17:51:10.852Z,0.37
2022-12-09T17:53:39.203Z,0.26
2022-12-09T17:56:09.922Z,0.37
2022-12-09T17:58:38.206Z,0.32
2022-12-09T18:01:06.097Z,0.35
2022-12-09T18:03:54.852Z,0.28
2022-12-09T18:06:21.291Z,-0.03
2022-12-09T18:08:48.977Z,-0.09
2022-12-09T18:11:17.966Z,0.29
2022-12-09T18:13:46.616Z,0.22
2022-12-09T18:16:15.132Z,0.38
2022-12-09T18:18:43.589Z,0.42
2022-12-09T18:21:15.941Z,0.43
2022-12-09T18:23:44.701Z,0.39
2022-12-09T18:26:14.771Z,0.31
2022-12-09T18:28:44.402Z,0.16
2022-12-09T18:31:15.366Z,0.31
2022-12-09T18:33:43.915Z,0.35
2022-12-09T18:36:13.398Z,0.31
2022-12-09T18:38:41.553Z,0.26
2022-12-09T18:41:11.740Z,0.24
2022-12-09T18:43:41.191Z,0.30
2022-12-09T18:46:12.424Z,0.38
2022-12-09T18:48:40.502Z,0.34
2022-12-09T18:51:15.519Z,0.39
2022-12-09T18:53:43.224Z,0.40
2022-12-09T18:56:11.425Z,0.07
2022-12-09T18:59:04.936Z,0.27
2022-12-09T19:01:31.193Z,0.32
2022-12-09T19:04:01.110Z,0.37
2022-12-09T19:06:30.549Z,0.19
2022-12-09T19:09:00.246Z,0.19
2022-12-09T19:11:29.876Z,0.29
2022-12-09T19:13:57.923Z,0.28
2022-12-09T19:16:26.815Z,0.22
2022-12-09T19:18:56.367Z,0.25
2022-12-09T19:21:25.528Z,0.36
2022-12-09T19:23:53.424Z,0.35
2022-12-09T19:26:24.853Z,0.43
2022-12-09T19:28:53.930Z,0.43
2022-12-09T19:31:23.745Z,0.47
2022-12-09T19:33:57.033Z,0.46
2022-12-09T19:36:25.263Z,0.43
2022-12-09T19:38:53.227Z,0.37
2022-12-09T19:41:21.059Z,0.40
2022-12-09T19:43:48.919Z,0.43
2022-12-09T19:46:16.779Z,0.38
2022-12-09T19:48:45.239Z,0.22
2022-12-09T19:51:16.283Z,0.40
2022-12-09T19:53:44.729Z,0.38
2022-12-09T19:56:15.356Z,0.34
2022-12-09T19:58:43.853Z,0.23
2022-12-09T20:01:12.498Z,0.14
2022-12-09T20:03:41.523Z,0.36
2022-12-09T20:06:10.623Z,0.27
2022-12-09T20:08:40.098Z,0.29
2022-12-09T20:11:12.667Z,0.29
2022-12-09T20:13:40.606Z,0.40
2022-12-09T20:16:09.814Z,-0.10
2022-12-09T20:18:40.447Z,0.07
2022-12-09T20:21:09.748Z,0.30
2022-12-09T20:23:40.014Z,0.18
2022-12-09T20:26:09.608Z,0.16
2022-12-09T20:28:37.754Z,0.18
2022-12-09T20:31:06.951Z,0.33
2022-12-09T20:33:34.865Z,0.29
2022-12-09T20:36:07.117Z,0.25
2022-12-09T20:38:35.973Z,0.18
2022-12-09T20:41:06.917Z,0.08
2022-12-09T20:43:39.476Z,0.19
2022-12-09T20:46:09.888Z,0.25
2022-12-09T20:48:39.966Z,0.26
2022-12-09T20:51:11.313Z,0.26
2022-12-09T20:53:39.499Z,0.20
2022-12-09T20:56:09.458Z,0.16
2022-12-09T20:58:37.617Z,0.12
2022-12-09T21:01:06.744Z,-0.13
2022-12-09T21:03:34.692Z,0.21
2022-12-09T21:06:02.649Z,0.26
2022-12-09T21:08:32.183Z,0.24
2022-12-09T21:11:04.409Z,0.17
2022-12-09T21:13:33.473Z,0.06
2022-12-09T21:16:05.808Z,0.16
2022-12-09T21:18:33.613Z,0.16
2022-12-09T21:21:01.256Z,0.19
2022-12-09T21:23:36.325Z,0.17
2022-12-09T21:26:05.874Z,0.13
2022-12-09T21:28:36.198Z,0.17
2022-12-09T21:31:08.563Z,0.23
2022-12-09T21:33:36.436Z,0.11
2022-12-09T21:36:06.614Z,0.07
2022-12-09T21:38:34.551Z,0.11
2022-12-09T21:41:04.619Z,0.07
2022-12-09T21:43:32.803Z,0.10
2022-12-09T21:46:04.408Z,0.15
2022-12-09T21:48:32.752Z,0.15
2022-12-09T21:51:01.449Z,-0.06
2022-12-09T21:53:29.422Z,0.11
2022-12-09T21:56:02.443Z,0.16
2022-12-09T21:58:31.165Z,-0.05
2022-12-09T22:00:59.203Z,0.11
2022-12-09T22:03:28.457Z,0.03
2022-12-09T22:05:58.398Z,0.09
2022-12-09T22:08:26.198Z,0.05
2022-12-09T22:10:53.903Z,-0.04
2022-12-09T22:13:22.671Z,0.30
2022-12-09T22:15:50.356Z,0.18
2022-12-09T22:18:18.047Z,-0.03
2022-12-09T22:21:23.052Z,0.20
2022-12-09T22:23:35.585Z,0.20
2022-12-09T22:26:06.108Z,0.06
2022-12-09T22:28:33.728Z,0.21
2022-12-09T22:31:01.970Z,0.25
2022-12-09T22:33:30.041Z,0.11
2022-12-09T22:36:04.771Z,0.23
2022-12-09T22:38:32.617Z,0.19
2022-12-09T22:41:03.957Z,0.17
2022-12-09T22:43:37.740Z,0.13
2022-12-09T22:46:06.500Z,0.13
2022-12-09T22:48:35.200Z,0.35
2022-12-09T22:51:05.449Z,0.27
2022-12-09T22:53:33.158Z,0.27
2022-12-09T22:56:01.369Z,0.17
2022-12-09T22:58:29.153Z,0.22
2022-12-09T23:00:58.385Z,0.28
2022-12-09T23:03:26.032Z,0.21
2022-12-09T23:05:55.189Z,0.20
2022-12-09T23:08:24.336Z,0.20
2022-12-09T23:10:52.382Z,0.04
2022-12-09T23:13:20.082Z,0.24
2022-12-09T23:15:47.786Z,0.16
2022-12-09T23:18:15.582Z,0.38
2022-12-09T23:20:43.609Z,0.23
2022-12-09T23:23:11.224Z,0.26
2022-12-09T23:25:40.146Z,0.22
2022-12-09T23:28:07.805Z,0.22
2022-12-09T23:30:35.487Z,0.23
2022-12-09T23:33:03.101Z,0.23
2022-12-09T23:35:30.926Z,0.14
2022-12-09T23:37:58.780Z,0.23
2022-12-09T23:40:26.378Z,0.12
2022-12-09T23:42:55.319Z,0.20
2022-12-09T23:45:23.017Z,0.14
2022-12-09T23:47:51.019Z,0.15
2022-12-09T23:50:19.714Z,0.23
2022-12-09T23:52:47.265Z,0.26
2022-12-09T23:55:15.060Z,0.22
2022-12-09T23:57:42.659Z,0.17
